createdAt,value
2018-09-25T00:00:36.024Z,6.80
2018-09-25T00:03:09.762Z,6.80
2018-09-25T00:05:43.501Z,6.70
2018-09-25T00:08:17.481Z,6.70
2018-09-25T00:10:51.410Z,6.80
2018-09-25T00:13:25.114Z,6.90
2018-09-25T00:15:58.938Z,6.90
2018-09-25T00:18:32.703Z,6.90
2018-09-25T00:21:06.428Z,6.90
2018-09-25T00:23:40.318Z,7.00
2018-09-25T00:26:14.265Z,7.00
2018-09-25T00:28:47.990Z,7.00
2018-09-25T00:31:21.573Z,7.00
2018-09-25T00:33:55.233Z,7.10
2018-09-25T00:36:28.970Z,7.10
2018-09-25T00:39:02.738Z,7.10
2018-09-25T00:41:36.522Z,7.10
2018-09-25T00:44:10.271Z,7.20
2018-09-25T00:46:50.386Z,7.20
2018-09-25T00:49:24.164Z,7.30
2018-09-25T00:51:57.914Z,7.30
2018-09-25T00:54:31.707Z,7.30
2018-09-25T00:57:05.423Z,7.20
2018-09-25T00:59:39.162Z,7.20
2018-09-25T01:02:12.858Z,7.20
2018-09-25T01:04:46.646Z,7.20
2018-09-25T01:07:20.364Z,7.20
2018-09-25T01:09:54.270Z,7.20
2018-09-25T01:12:28.187Z,7.20
2018-09-25T01:15:01.935Z,7.20
2018-09-25T01:17:35.798Z,7.20
2018-09-25T01:20:09.595Z,7.20
2018-09-25T01:22:43.348Z,7.20
2018-09-25T01:25:17.002Z,7.20
2018-09-25T01:27:50.787Z,7.20
2018-09-25T01:30:24.561Z,7.20
2018-09-25T01:32:58.400Z,7.30
2018-09-25T01:35:32.343Z,7.20
2018-09-25T01:38:06.195Z,7.20
2018-09-25T01:40:39.894Z,7.20
2018-09-25T01:43:13.943Z,7.20
2018-09-25T01:45:47.806Z,7.20
2018-09-25T01:48:21.497Z,7.20
2018-09-25T01:50:55.334Z,7.20
2018-09-25T01:53:29.146Z,7.30
2018-09-25T01:56:02.846Z,7.20
2018-09-25T01:58:36.586Z,7.20
2018-09-25T02:01:10.483Z,7.30
2018-09-25T02:03:44.314Z,7.30
2018-09-25T02:06:18.078Z,7.30
2018-09-25T02:08:51.847Z,7.30
2018-09-25T02:11:25.590Z,7.30
2018-09-25T02:13:59.402Z,7.30
2018-09-25T02:16:33.120Z,7.20
2018-09-25T02:19:06.894Z,7.20
2018-09-25T02:21:40.659Z,7.30
2018-09-25T02:24:14.452Z,7.40
2018-09-25T02:26:48.187Z,7.40
2018-09-25T02:29:22.004Z,7.50
2018-09-25T02:31:55.748Z,7.50
2018-09-25T02:34:29.439Z,7.60
2018-09-25T02:37:03.351Z,7.50
2018-09-25T02:39:37.170Z,7.50
2018-09-25T02:42:11.008Z,7.40
2018-09-25T02:44:44.926Z,7.40
2018-09-25T02:47:18.666Z,7.40
2018-09-25T02:49:52.385Z,7.30
2018-09-25T02:52:26.107Z,7.20
2018-09-25T02:54:59.868Z,7.10
2018-09-25T02:57:33.704Z,7.20
2018-09-25T03:00:07.427Z,7.20
2018-09-25T03:02:41.144Z,7.30
2018-09-25T03:05:14.978Z,7.30
2018-09-25T03:07:48.646Z,7.30
2018-09-25T03:10:22.430Z,7.30
2018-09-25T03:12:56.129Z,7.40
2018-09-25T03:15:29.768Z,7.40
2018-09-25T03:18:03.535Z,7.40
2018-09-25T03:20:37.446Z,7.40
2018-09-25T03:23:11.391Z,7.40
2018-09-25T03:25:45.015Z,7.30
2018-09-25T03:28:18.770Z,7.30
2018-09-25T03:30:52.504Z,7.20
2018-09-25T03:33:26.158Z,7.30
2018-09-25T03:35:59.938Z,7.20
2018-09-25T03:38:33.720Z,7.30
2018-09-25T03:41:07.398Z,7.20
2018-09-25T03:43:41.120Z,7.20
2018-09-25T03:46:15.086Z,7.20
2018-09-25T03:48:48.898Z,7.10
2018-09-25T03:51:22.738Z,7.10
2018-09-25T03:53:56.510Z,7.00
2018-09-25T03:56:30.286Z,7.00
2018-09-25T03:59:04.086Z,7.00
2018-09-25T04:01:37.659Z,6.90
2018-09-25T04:04:11.587Z,7.00
2018-09-25T04:06:45.387Z,7.00
2018-09-25T04:09:19.163Z,7.00
2018-09-25T04:11:52.962Z,7.00
2018-09-25T04:14:26.683Z,7.10
2018-09-25T04:17:00.482Z,7.10
2018-09-25T04:19:34.238Z,7.10
2018-09-25T04:22:08.074Z,7.10
2018-09-25T04:24:41.778Z,7.00
2018-09-25T04:27:15.599Z,7.00
2018-09-25T04:29:49.182Z,7.10
2018-09-25T04:32:22.971Z,7.00
2018-09-25T04:34:56.815Z,7.10
2018-09-25T04:37:30.603Z,7.10
2018-09-25T04:40:04.299Z,7.10
2018-09-25T04:42:38.088Z,7.00
2018-09-25T04:45:12.330Z,7.00
2018-09-25T04:47:46.103Z,7.00
2018-09-25T04:50:19.835Z,7.00
2018-09-25T04:52:53.602Z,7.00
2018-09-25T04:55:27.466Z,7.10
2018-09-25T04:58:01.220Z,7.10
2018-09-25T05:00:34.978Z,7.20
2018-09-25T05:03:08.694Z,7.30
2018-09-25T05:05:42.530Z,7.30
2018-09-25T05:08:16.155Z,7.30
2018-09-25T05:10:50.061Z,7.30
2018-09-25T05:13:23.739Z,7.30
2018-09-25T05:15:57.478Z,7.40
2018-09-25T05:18:31.338Z,7.30
2018-09-25T05:21:05.223Z,7.40
2018-09-25T05:23:38.924Z,7.40
2018-09-25T05:26:12.711Z,7.40
2018-09-25T05:28:46.500Z,7.40
2018-09-25T05:31:20.266Z,7.40
2018-09-25T05:33:54.006Z,7.40
2018-09-25T05:36:27.923Z,7.60
2018-09-25T05:39:01.670Z,7.50
2018-09-25T05:41:35.410Z,7.60
2018-09-25T05:44:09.187Z,7.60
2018-09-25T05:46:42.936Z,7.70
2018-09-25T05:49:16.727Z,7.70
2018-09-25T05:51:50.546Z,7.80
2018-09-25T05:54:24.186Z,7.80
2018-09-25T05:56:57.762Z,7.90
2018-09-25T05:59:31.519Z,8.00
2018-09-25T06:02:05.307Z,8.10
2018-09-25T06:04:39.174Z,8.10
2018-09-25T06:07:13.135Z,8.10
2018-09-25T06:09:46.880Z,8.20
2018-09-25T06:12:20.594Z,8.30
2018-09-25T06:14:54.314Z,8.30
2018-09-25T06:17:28.179Z,8.30
2018-09-25T06:20:01.887Z,8.30
2018-09-25T06:22:35.686Z,8.40
2018-09-25T06:25:09.438Z,8.40
2018-09-25T06:27:43.099Z,8.40
2018-09-25T06:30:16.941Z,8.50
2018-09-25T06:32:50.630Z,8.40
2018-09-25T06:35:24.415Z,8.40
2018-09-25T06:37:58.242Z,8.60
2018-09-25T06:40:31.879Z,8.60
2018-09-25T06:43:05.772Z,8.80
2018-09-25T06:45:39.634Z,8.80
2018-09-25T06:48:13.543Z,8.90
2018-09-25T06:50:47.291Z,8.80
2018-09-25T06:53:21.054Z,9.00
2018-09-25T06:55:54.805Z,9.00
2018-09-25T06:58:28.694Z,9.00
2018-09-25T07:01:02.520Z,9.10
2018-09-25T07:03:36.266Z,9.10
2018-09-25T07:06:10.243Z,9.20
2018-09-25T07:08:44.103Z,9.30
2018-09-25T07:11:18.028Z,9.40
2018-09-25T07:13:51.763Z,9.30
2018-09-25T07:16:25.408Z,9.40
2018-09-25T07:18:59.295Z,9.40
2018-09-25T07:21:32.959Z,9.60
2018-09-25T07:24:06.704Z,9.70
2018-09-25T07:26:40.450Z,9.80
2018-09-25T07:29:14.382Z,9.90
2018-09-25T07:31:48.301Z,10.10
2018-09-25T07:34:21.999Z,10.20
2018-09-25T07:36:55.763Z,10.30
2018-09-25T07:39:29.482Z,10.40
2018-09-25T07:42:03.246Z,10.40
2018-09-25T07:44:37.034Z,10.50
2018-09-25T07:47:11.076Z,10.50
2018-09-25T07:49:44.840Z,10.50
2018-09-25T07:52:18.606Z,10.80
2018-09-25T07:54:52.423Z,10.80
2018-09-25T07:57:26.143Z,10.80
2018-09-25T07:59:59.878Z,10.90
2018-09-25T08:02:33.551Z,11.00
2018-09-25T08:05:07.163Z,11.20
2018-09-25T08:07:40.954Z,11.30
2018-09-25T08:10:14.790Z,11.30
2018-09-25T08:12:48.359Z,11.40
2018-09-25T08:15:22.315Z,11.60
2018-09-25T08:17:56.044Z,11.70
2018-09-25T08:20:29.635Z,11.90
2018-09-25T08:23:03.306Z,11.90
2018-09-25T08:25:37.147Z,12.00
2018-09-25T08:28:10.978Z,12.20
2018-09-25T08:30:44.751Z,12.00
2018-09-25T08:33:18.375Z,12.00
2018-09-25T08:35:52.134Z,12.00
2018-09-25T08:38:25.991Z,12.00
2018-09-25T08:40:59.690Z,12.30
2018-09-25T08:43:33.306Z,12.20
2018-09-25T08:46:07.127Z,12.30
2018-09-25T08:48:40.891Z,12.30
2018-09-25T08:51:14.666Z,12.20
2018-09-25T08:53:48.378Z,12.10
2018-09-25T08:56:22.138Z,12.00
2018-09-25T08:58:56.008Z,12.00
2018-09-25T09:01:29.843Z,12.00
2018-09-25T09:04:03.735Z,12.00
2018-09-25T09:06:37.587Z,12.20
2018-09-25T09:09:14.162Z,12.30
2018-09-25T09:11:48.306Z,12.50
2018-09-25T09:14:22.003Z,12.50
2018-09-25T09:16:55.699Z,12.70
2018-09-25T09:19:29.497Z,12.50
2018-09-25T09:22:03.232Z,12.60
2018-09-25T09:24:37.062Z,12.30
2018-09-25T09:27:10.979Z,12.30
2018-09-25T09:29:44.701Z,12.20
2018-09-25T09:32:18.518Z,12.40
2018-09-25T09:34:52.231Z,12.40
2018-09-25T09:37:26.226Z,12.50
2018-09-25T09:40:00.106Z,12.80
2018-09-25T09:42:33.959Z,12.70
2018-09-25T09:45:07.823Z,12.60
2018-09-25T09:47:41.710Z,12.60
2018-09-25T09:50:15.473Z,12.60
2018-09-25T09:52:49.094Z,12.60
2018-09-25T09:55:22.860Z,12.60
2018-09-25T09:57:56.528Z,12.30
2018-09-25T10:00:30.287Z,12.10
2018-09-25T10:03:04.160Z,12.00
2018-09-25T10:05:37.903Z,12.00
2018-09-25T10:08:11.714Z,12.10
2018-09-25T10:10:45.432Z,12.20
2018-09-25T10:13:19.198Z,12.20
2018-09-25T10:15:53.014Z,12.20
2018-09-25T10:18:26.738Z,12.20
2018-09-25T10:21:00.576Z,12.20
2018-09-25T10:23:34.359Z,12.30
2018-09-25T10:26:08.130Z,12.30
2018-09-25T10:28:41.870Z,12.30
2018-09-25T10:31:15.786Z,12.20
2018-09-25T10:33:49.779Z,12.30
2018-09-25T10:36:23.496Z,12.50
2018-09-25T10:38:57.139Z,12.80
2018-09-25T10:41:30.867Z,13.00
2018-09-25T10:44:04.618Z,13.20
2018-09-25T10:46:38.567Z,13.40
2018-09-25T10:49:12.454Z,12.90
2018-09-25T10:51:46.271Z,12.90
2018-09-25T10:54:20.063Z,13.00
2018-09-25T10:56:53.955Z,12.90
2018-09-25T10:59:27.766Z,12.60
2018-09-25T11:02:01.672Z,12.30
2018-09-25T11:04:35.398Z,12.50
2018-09-25T11:07:09.116Z,12.60
2018-09-25T11:09:43.019Z,12.70
2018-09-25T11:12:16.878Z,12.70
2018-09-25T11:14:50.612Z,12.60
2018-09-25T11:17:24.327Z,12.80
2018-09-25T11:19:58.199Z,13.10
2018-09-25T11:22:31.938Z,13.10
2018-09-25T11:25:05.762Z,13.20
2018-09-25T11:27:39.650Z,13.40
2018-09-25T11:30:13.435Z,13.60
2018-09-25T11:32:47.384Z,13.40
2018-09-25T11:35:21.286Z,13.50
2018-09-25T11:37:55.015Z,13.70
2018-09-25T11:40:28.727Z,13.80
2018-09-25T11:43:02.466Z,13.50
2018-09-25T11:45:36.267Z,13.40
2018-09-25T11:48:09.999Z,13.50
2018-09-25T11:50:43.766Z,13.50
2018-09-25T11:53:17.557Z,13.80
2018-09-25T11:55:51.303Z,14.00
2018-09-25T11:58:24.998Z,14.30
2018-09-25T12:00:58.778Z,14.30
2018-09-25T12:03:32.557Z,14.40
2018-09-25T12:06:06.214Z,14.30
2018-09-25T12:08:39.979Z,14.30
2018-09-25T12:11:13.699Z,14.00
2018-09-25T12:13:47.356Z,14.10
2018-09-25T12:16:21.158Z,14.20
2018-09-25T12:18:54.866Z,14.30
2018-09-25T12:21:28.596Z,14.50
2018-09-25T12:24:02.343Z,14.60
2018-09-25T12:26:36.046Z,14.90
2018-09-25T12:29:09.898Z,14.90
2018-09-25T12:31:43.750Z,14.50
2018-09-25T12:34:17.648Z,14.20
2018-09-25T12:36:51.382Z,14.00
2018-09-25T12:39:25.198Z,14.10
2018-09-25T12:41:58.894Z,14.10
2018-09-25T12:44:32.606Z,14.00
2018-09-25T12:47:06.554Z,13.90
2018-09-25T12:49:40.146Z,13.80
2018-09-25T12:52:13.786Z,13.90
2018-09-25T12:54:47.662Z,14.10
2018-09-25T12:57:21.570Z,14.00
2018-09-25T12:59:55.431Z,13.90
2018-09-25T13:02:29.203Z,13.80
2018-09-25T13:05:03.370Z,13.80
2018-09-25T13:07:37.162Z,13.90
2018-09-25T13:10:11.125Z,13.90
2018-09-25T13:12:44.949Z,13.90
2018-09-25T13:15:18.734Z,14.00
2018-09-25T13:17:52.476Z,14.00
2018-09-25T13:20:26.083Z,13.90
2018-09-25T13:22:59.778Z,14.00
2018-09-25T13:25:33.639Z,13.80
2018-09-25T13:28:07.542Z,13.70
2018-09-25T13:30:41.479Z,13.60
2018-09-25T13:33:15.339Z,13.70
2018-09-25T13:35:49.137Z,13.60
2018-09-25T13:38:22.998Z,13.70
2018-09-25T13:40:56.766Z,13.70
2018-09-25T13:43:30.611Z,13.90
2018-09-25T13:46:04.322Z,13.90
2018-09-25T13:48:38.020Z,13.80
2018-09-25T13:51:11.847Z,14.00
2018-09-25T13:53:45.536Z,13.80
2018-09-25T13:56:19.343Z,14.00
2018-09-25T13:58:53.155Z,14.20
2018-09-25T14:01:26.875Z,14.10
2018-09-25T14:04:00.723Z,14.10
2018-09-25T14:06:34.534Z,14.20
2018-09-25T14:09:08.350Z,13.90
2018-09-25T14:11:42.315Z,13.70
2018-09-25T14:14:16.003Z,13.80
2018-09-25T14:16:49.694Z,13.80
2018-09-25T14:19:23.410Z,13.50
2018-09-25T14:21:57.187Z,13.50
2018-09-25T14:24:31.005Z,13.50
2018-09-25T14:27:04.831Z,13.60
2018-09-25T14:29:38.475Z,13.50
2018-09-25T14:32:12.266Z,13.50
2018-09-25T14:34:46.165Z,13.40
2018-09-25T14:37:19.930Z,13.50
2018-09-25T14:39:53.748Z,13.50
2018-09-25T14:42:27.466Z,13.30
2018-09-25T14:45:01.183Z,13.30
2018-09-25T14:47:34.824Z,13.40
2018-09-25T14:50:08.557Z,13.20
2018-09-25T14:52:42.298Z,13.20
2018-09-25T14:55:15.966Z,12.90
2018-09-25T14:57:49.730Z,12.70
2018-09-25T15:00:23.634Z,12.60
2018-09-25T15:02:57.394Z,12.40
2018-09-25T15:05:31.424Z,12.40
2018-09-25T15:08:05.279Z,12.30
2018-09-25T15:10:39.093Z,12.20
2018-09-25T15:13:12.727Z,12.10
2018-09-25T15:15:46.303Z,12.10
2018-09-25T15:18:20.015Z,12.10
2018-09-25T15:20:53.784Z,12.00
2018-09-25T15:23:27.670Z,12.00
2018-09-25T15:26:01.468Z,11.90
2018-09-25T15:28:35.279Z,12.00
2018-09-25T15:31:09.027Z,12.10
2018-09-25T15:33:42.810Z,12.10
2018-09-25T15:36:16.550Z,12.10
2018-09-25T15:38:50.394Z,12.20
2018-09-25T15:41:24.304Z,12.20
2018-09-25T15:43:58.023Z,12.10
2018-09-25T15:46:31.738Z,12.00
2018-09-25T15:49:05.619Z,11.90
2018-09-25T15:51:39.375Z,11.70
2018-09-25T15:54:13.090Z,11.70
2018-09-25T15:56:46.807Z,11.60
2018-09-25T15:59:20.629Z,11.60
2018-09-25T16:01:54.306Z,11.50
2018-09-25T16:04:28.029Z,11.50
2018-09-25T16:07:01.803Z,11.50
2018-09-25T16:09:35.602Z,11.30
2018-09-25T16:12:10.253Z,11.00
2018-09-25T16:14:43.968Z,10.60
2018-09-25T16:17:17.762Z,10.50
2018-09-25T16:19:51.474Z,10.30
2018-09-25T16:22:25.066Z,10.10
2018-09-25T16:24:58.950Z,9.90
2018-09-25T16:27:32.702Z,9.80
2018-09-25T16:30:06.462Z,9.70
2018-09-25T16:32:40.358Z,9.60
2018-09-25T16:35:14.674Z,9.60
2018-09-25T16:37:48.417Z,9.40
2018-09-25T16:40:21.991Z,9.30
2018-09-25T16:42:55.703Z,9.20
2018-09-25T16:45:29.516Z,9.10
2018-09-25T16:48:03.127Z,9.00
2018-09-25T16:50:36.791Z,8.90
2018-09-25T16:53:10.486Z,8.90
2018-09-25T16:55:44.217Z,8.80
2018-09-25T16:58:17.987Z,8.70
2018-09-25T17:00:51.711Z,8.60
2018-09-25T17:03:25.546Z,8.50
2018-09-25T17:05:59.335Z,8.40
2018-09-25T17:08:33.075Z,8.20
2018-09-25T17:11:06.852Z,8.00
2018-09-25T17:13:40.630Z,7.90
2018-09-25T17:16:14.454Z,7.70
2018-09-25T17:18:48.263Z,7.60
2018-09-25T17:21:21.934Z,7.50
2018-09-25T17:23:55.654Z,7.20
2018-09-25T17:26:29.395Z,7.20
2018-09-25T17:29:03.270Z,7.10
2018-09-25T17:31:37.093Z,7.00
2018-09-25T17:34:10.872Z,6.80
2018-09-25T17:36:44.686Z,6.80
2018-09-25T17:39:18.399Z,6.70
2018-09-25T17:41:52.227Z,6.60
2018-09-25T17:44:25.906Z,6.70
2018-09-25T17:46:59.627Z,6.60
2018-09-25T17:49:33.491Z,6.50
2018-09-25T17:52:07.211Z,6.40
2018-09-25T17:54:40.994Z,6.30
2018-09-25T17:57:14.687Z,6.30
2018-09-25T17:59:48.375Z,6.20
2018-09-25T18:02:22.120Z,6.10
2018-09-25T18:04:55.836Z,6.00
2018-09-25T18:07:29.627Z,5.90
2018-09-25T18:10:03.444Z,5.90
2018-09-25T18:12:37.207Z,6.00
2018-09-25T18:15:11.127Z,5.90
2018-09-25T18:17:44.919Z,5.90
2018-09-25T18:20:18.767Z,5.70
2018-09-25T18:22:52.603Z,5.70
2018-09-25T18:25:26.471Z,5.70
2018-09-25T18:28:00.245Z,5.70
2018-09-25T18:30:33.914Z,5.70
2018-09-25T18:33:07.644Z,5.60
2018-09-25T18:35:41.403Z,5.40
2018-09-25T18:38:15.201Z,5.40
2018-09-25T18:40:49.168Z,5.30
2018-09-25T18:43:22.979Z,5.30
2018-09-25T18:45:56.843Z,5.20
2018-09-25T18:48:30.635Z,5.20
2018-09-25T18:51:04.378Z,5.20
2018-09-25T18:53:38.166Z,5.10
2018-09-25T18:56:11.778Z,5.10
2018-09-25T18:58:45.704Z,5.10
2018-09-25T19:01:19.486Z,5.10
2018-09-25T19:03:53.434Z,5.00
2018-09-25T19:06:27.318Z,5.10
2018-09-25T19:09:01.012Z,5.00
2018-09-25T19:11:34.746Z,5.20
2018-09-25T19:14:08.500Z,5.10
2018-09-25T19:16:42.410Z,4.90
2018-09-25T19:19:16.150Z,4.90
2018-09-25T19:21:50.106Z,4.80
2018-09-25T19:24:23.955Z,4.70
2018-09-25T19:26:57.699Z,4.70
2018-09-25T19:29:31.387Z,4.70
2018-09-25T19:32:05.085Z,5.10
2018-09-25T19:34:38.694Z,5.10
2018-09-25T19:37:12.338Z,5.00
2018-09-25T19:39:46.080Z,4.90
2018-09-25T19:42:19.873Z,4.90
2018-09-25T19:44:53.432Z,4.80
2018-09-25T19:47:27.124Z,4.70
2018-09-25T19:50:00.874Z,4.80
2018-09-25T19:52:34.587Z,4.70
2018-09-25T19:55:08.435Z,4.80
2018-09-25T19:57:42.128Z,4.80
2018-09-25T20:00:15.869Z,4.60
2018-09-25T20:02:49.813Z,4.50
2018-09-25T20:05:23.585Z,4.50
2018-09-25T20:07:57.348Z,4.40
2018-09-25T20:10:31.086Z,4.30
2018-09-25T20:13:04.937Z,4.20
2018-09-25T20:15:38.622Z,4.20
2018-09-25T20:18:12.291Z,4.10
2018-09-25T20:20:46.211Z,4.10
2018-09-25T20:23:20.079Z,4.10
2018-09-25T20:25:53.948Z,3.90
2018-09-25T20:28:27.557Z,3.90
2018-09-25T20:31:01.445Z,3.90
2018-09-25T20:33:35.365Z,3.90
2018-09-25T20:36:09.250Z,4.00
2018-09-25T20:38:50.018Z,4.00
2018-09-25T20:41:23.810Z,3.90
2018-09-25T20:43:57.634Z,3.90
2018-09-25T20:46:31.368Z,3.80
2018-09-25T20:49:05.231Z,3.80
2018-09-25T20:51:38.923Z,3.80
2018-09-25T20:54:12.570Z,3.80
2018-09-25T20:56:46.504Z,3.70
2018-09-25T20:59:20.399Z,3.70
2018-09-25T21:01:54.187Z,3.70
2018-09-25T21:04:28.055Z,3.70
2018-09-25T21:07:01.890Z,3.80
2018-09-25T21:09:35.638Z,3.80
2018-09-25T21:12:09.355Z,3.80
2018-09-25T21:14:43.023Z,3.70
2018-09-25T21:17:16.732Z,3.60
2018-09-25T21:19:50.523Z,3.50
2018-09-25T21:22:24.217Z,3.40
2018-09-25T21:24:58.151Z,3.30
2018-09-25T21:27:31.846Z,3.20
2018-09-25T21:30:05.586Z,3.20
2018-09-25T21:32:39.274Z,3.20
2018-09-25T21:35:13.015Z,3.20
2018-09-25T21:37:46.742Z,3.30
2018-09-25T21:40:20.398Z,3.30
2018-09-25T21:42:54.250Z,3.40
2018-09-25T21:45:28.037Z,3.40
2018-09-25T21:48:01.751Z,3.50
2018-09-25T21:50:35.563Z,3.50
2018-09-25T21:53:09.350Z,3.50
2018-09-25T21:55:43.106Z,3.40
2018-09-25T21:58:17.006Z,3.40
2018-09-25T22:00:50.882Z,3.30
2018-09-25T22:03:24.718Z,3.30
2018-09-25T22:05:58.583Z,3.20
2018-09-25T22:08:32.398Z,3.10
2018-09-25T22:11:06.292Z,3.20
2018-09-25T22:13:40.172Z,3.10
2018-09-25T22:16:13.950Z,3.10
2018-09-25T22:18:47.872Z,3.10
2018-09-25T22:21:21.609Z,3.10
2018-09-25T22:23:55.343Z,2.90
2018-09-25T22:26:29.068Z,2.90
2018-09-25T22:29:02.754Z,2.80
2018-09-25T22:31:36.599Z,2.80
2018-09-25T22:34:10.316Z,2.80
2018-09-25T22:36:44.095Z,2.70
2018-09-25T22:39:17.745Z,2.70
2018-09-25T22:41:51.330Z,2.60
2018-09-25T22:44:25.179Z,2.60
2018-09-25T22:46:59.135Z,2.60
2018-09-25T22:49:32.927Z,2.60
2018-09-25T22:52:06.718Z,2.60
2018-09-25T22:54:40.462Z,2.60
2018-09-25T22:57:14.304Z,2.50
2018-09-25T22:59:48.095Z,2.50
2018-09-25T23:02:21.830Z,2.50
2018-09-25T23:04:55.522Z,2.50
2018-09-25T23:07:29.266Z,2.40
2018-09-25T23:10:03.001Z,2.30
2018-09-25T23:12:36.899Z,2.20
2018-09-25T23:15:10.862Z,2.30
2018-09-25T23:17:44.674Z,2.30
2018-09-25T23:20:18.447Z,2.20
2018-09-25T23:22:52.187Z,2.20
2018-09-25T23:25:25.851Z,2.10
2018-09-25T23:27:59.586Z,2.10
2018-09-25T23:30:33.330Z,2.10
2018-09-25T23:33:07.174Z,2.20
2018-09-25T23:35:40.862Z,2.10
2018-09-25T23:38:14.678Z,2.00
2018-09-25T23:40:47.338Z,1.90
2018-09-25T23:43:40.103Z,1.90
2018-09-25T23:46:24.013Z,2.00
2018-09-25T23:48:59.993Z,1.90
2018-09-25T23:51:33.790Z,1.90
2018-09-25T23:55:06.030Z,2.00
2018-09-25T23:57:40.742Z,2.00
